sensor_id;sensor_type;location;lat;lon;timestamp;P1;durP1;ratioP1;P2;durP2;ratioP2
49582;SDS011;36329;48.816;44.624;2023-05-07T00:00:37;1.5;;;0.7;;
49582;SDS011;36329;48.816;44.624;2023-05-07T00:03:39;3.6;;;0.9;;
49582;SDS011;36329;48.816;44.624;2023-05-07T00:06:51;2.9;;;0.8;;
49582;SDS011;36329;48.816;44.624;2023-05-07T00:09:53;1.5;;;0.8;;
49582;SDS011;36329;48.816;44.624;2023-05-07T00:12:55;1.6;;;1;;
49582;SDS011;36329;48.816;44.624;2023-05-07T00:15:59;1.4;;;0.9;;
49582;SDS011;36329;48.816;44.624;2023-05-07T00:19:01;2.1;;;0.8;;
49582;SDS011;36329;48.816;44.624;2023-05-07T00:22:03;2.5;;;1;;
49582;SDS011;36329;48.816;44.624;2023-05-07T00:25:06;2.3;;;0.9;;
49582;SDS011;36329;48.816;44.624;2023-05-07T00:28:09;2;;;0.9;;
49582;SDS011;36329;48.816;44.624;2023-05-07T00:31:11;2.9;;;1.1;;
49582;SDS011;36329;48.816;44.624;2023-05-07T00:34:13;1.7;;;0.7;;
49582;SDS011;36329;48.816;44.624;2023-05-07T00:37:15;3;;;1.1;;
49582;SDS011;36329;48.816;44.624;2023-05-07T00:40:17;1.4;;;1.1;;
49582;SDS011;36329;48.816;44.624;2023-05-07T00:43:19;3;;;1.1;;
49582;SDS011;36329;48.816;44.624;2023-05-07T00:46:21;2;;;0.9;;
49582;SDS011;36329;48.816;44.624;2023-05-07T00:49:29;2.7;;;0.9;;
49582;SDS011;36329;48.816;44.624;2023-05-07T00:52:40;4.3;;;1;;
49582;SDS011;36329;48.816;44.624;2023-05-07T00:55:44;2.6;;;0.9;;
49582;SDS011;36329;48.816;44.624;2023-05-07T00:58:46;2;;;1.1;;
49582;SDS011;36329;48.816;44.624;2023-05-07T01:01:48;1.5;;;0.9;;
49582;SDS011;36329;48.816;44.624;2023-05-07T01:04:51;1.8;;;0.9;;
49582;SDS011;36329;48.816;44.624;2023-05-07T01:07:53;1.5;;;1.1;;
49582;SDS011;36329;48.816;44.624;2023-05-07T01:10:56;2.1;;;1.1;;
49582;SDS011;36329;48.816;44.624;2023-05-07T01:13:59;1.9;;;1.1;;
49582;SDS011;36329;48.816;44.624;2023-05-07T01:17:03;1.6;;;0.9;;
49582;SDS011;36329;48.816;44.624;2023-05-07T01:20:05;1.6;;;1;;
49582;SDS011;36329;48.816;44.624;2023-05-07T01:23:08;2.3;;;1;;
49582;SDS011;36329;48.816;44.624;2023-05-07T01:26:12;1.2;;;0.9;;
49582;SDS011;36329;48.816;44.624;2023-05-07T01:29:14;1.6;;;0.9;;
49582;SDS011;36329;48.816;44.624;2023-05-07T01:32:16;2.2;;;0.9;;
49582;SDS011;36329;48.816;44.624;2023-05-07T01:35:26;1.1;;;1;;
49582;SDS011;36329;48.816;44.624;2023-05-07T01:38:32;1.4;;;0.9;;
49582;SDS011;36329;48.816;44.624;2023-05-07T01:41:35;1.4;;;1;;
49582;SDS011;36329;48.816;44.624;2023-05-07T01:44:37;1.4;;;0.9;;
49582;SDS011;36329;48.816;44.624;2023-05-07T01:47:39;1.6;;;1;;
49582;SDS011;36329;48.816;44.624;2023-05-07T01:50:41;1.6;;;1;;
49582;SDS011;36329;48.816;44.624;2023-05-07T01:53:44;1;;;0.8;;
49582;SDS011;36329;48.816;44.624;2023-05-07T01:56:46;1.5;;;0.9;;
49582;SDS011;36329;48.816;44.624;2023-05-07T01:59:48;1.6;;;0.9;;
49582;SDS011;36329;48.816;44.624;2023-05-07T02:02:50;1.8;;;1;;
49582;SDS011;36329;48.816;44.624;2023-05-07T02:05:52;2.2;;;0.9;;
49582;SDS011;36329;48.816;44.624;2023-05-07T02:08:54;3.9;;;0.8;;
49582;SDS011;36329;48.816;44.624;2023-05-07T02:11:56;1.1;;;0.9;;
49582;SDS011;36329;48.816;44.624;2023-05-07T02:14:58;1.1;;;0.8;;
49582;SDS011;36329;48.816;44.624;2023-05-07T02:18:00;2;;;0.9;;
49582;SDS011;36329;48.816;44.624;2023-05-07T02:21:03;1.9;;;0.8;;
49582;SDS011;36329;48.816;44.624;2023-05-07T02:24:05;6.6;;;1.3;;
49582;SDS011;36329;48.816;44.624;2023-05-07T02:27:07;1.2;;;0.8;;
49582;SDS011;36329;48.816;44.624;2023-05-07T02:30:10;1.9;;;0.8;;
49582;SDS011;36329;48.816;44.624;2023-05-07T02:33:12;1.1;;;0.8;;
49582;SDS011;36329;48.816;44.624;2023-05-07T02:36:14;1.7;;;0.7;;
49582;SDS011;36329;48.816;44.624;2023-05-07T02:39:16;1.3;;;1;;
49582;SDS011;36329;48.816;44.624;2023-05-07T02:42:18;2.7;;;0.8;;
49582;SDS011;36329;48.816;44.624;2023-05-07T02:45:20;2;;;0.9;;
49582;SDS011;36329;48.816;44.624;2023-05-07T02:48:22;1.6;;;0.8;;
49582;SDS011;36329;48.816;44.624;2023-05-07T02:51:25;1.3;;;0.9;;
49582;SDS011;36329;48.816;44.624;2023-05-07T02:54:27;2.4;;;0.9;;
49582;SDS011;36329;48.816;44.624;2023-05-07T02:57:29;2.2;;;0.8;;
49582;SDS011;36329;48.816;44.624;2023-05-07T03:00:31;1.9;;;1.1;;
49582;SDS011;36329;48.816;44.624;2023-05-07T03:03:33;1.9;;;1;;
49582;SDS011;36329;48.816;44.624;2023-05-07T03:06:35;1.6;;;1.1;;
49582;SDS011;36329;48.816;44.624;2023-05-07T03:09:37;1.4;;;0.9;;
49582;SDS011;36329;48.816;44.624;2023-05-07T03:12:39;1.5;;;1;;
49582;SDS011;36329;48.816;44.624;2023-05-07T03:15:41;1.6;;;1;;
49582;SDS011;36329;48.816;44.624;2023-05-07T03:18:43;1.7;;;1.1;;
49582;SDS011;36329;48.816;44.624;2023-05-07T03:21:45;2.3;;;1.1;;
49582;SDS011;36329;48.816;44.624;2023-05-07T03:24:47;5.7;;;1.2;;
49582;SDS011;36329;48.816;44.624;2023-05-07T03:27:48;2.7;;;1.1;;
49582;SDS011;36329;48.816;44.624;2023-05-07T03:30:50;3.5;;;1.2;;
49582;SDS011;36329;48.816;44.624;2023-05-07T03:33:53;2.3;;;1.4;;
49582;SDS011;36329;48.816;44.624;2023-05-07T03:36:57;3;;;1;;
49582;SDS011;36329;48.816;44.624;2023-05-07T03:39:59;2.5;;;1.2;;
49582;SDS011;36329;48.816;44.624;2023-05-07T03:43:01;2.1;;;1.1;;
49582;SDS011;36329;48.816;44.624;2023-05-07T03:46:03;3.3;;;1.1;;
49582;SDS011;36329;48.816;44.624;2023-05-07T03:49:05;1.7;;;1.2;;
49582;SDS011;36329;48.816;44.624;2023-05-07T03:52:07;2.2;;;1;;
49582;SDS011;36329;48.816;44.624;2023-05-07T03:55:09;5.2;;;1.3;;
49582;SDS011;36329;48.816;44.624;2023-05-07T03:58:11;1.8;;;1.1;;
49582;SDS011;36329;48.816;44.624;2023-05-07T04:01:15;2.7;;;1;;
49582;SDS011;36329;48.816;44.624;2023-05-07T04:04:17;1.8;;;1;;
49582;SDS011;36329;48.816;44.624;2023-05-07T04:07:19;1.9;;;1.2;;
49582;SDS011;36329;48.816;44.624;2023-05-07T04:10:21;1.5;;;1;;
49582;SDS011;36329;48.816;44.624;2023-05-07T04:13:23;2.8;;;1.1;;
49582;SDS011;36329;48.816;44.624;2023-05-07T04:16:26;1.6;;;0.9;;
49582;SDS011;36329;48.816;44.624;2023-05-07T04:19:28;1.5;;;1;;
49582;SDS011;36329;48.816;44.624;2023-05-07T04:22:30;3.9;;;1.2;;
49582;SDS011;36329;48.816;44.624;2023-05-07T04:25:32;4.1;;;1.2;;
49582;SDS011;36329;48.816;44.624;2023-05-07T04:28:34;2.2;;;1.2;;
49582;SDS011;36329;48.816;44.624;2023-05-07T04:31:36;2;;;1.3;;
49582;SDS011;36329;48.816;44.624;2023-05-07T04:34:38;1.5;;;1.1;;
49582;SDS011;36329;48.816;44.624;2023-05-07T04:37:40;1.9;;;1;;
49582;SDS011;36329;48.816;44.624;2023-05-07T04:40:42;3.4;;;1.3;;
49582;SDS011;36329;48.816;44.624;2023-05-07T04:43:45;2.1;;;1;;
49582;SDS011;36329;48.816;44.624;2023-05-07T04:46:47;3;;;1.1;;
49582;SDS011;36329;48.816;44.624;2023-05-07T04:49:49;1.9;;;1.1;;
49582;SDS011;36329;48.816;44.624;2023-05-07T04:52:51;2.5;;;1.1;;
49582;SDS011;36329;48.816;44.624;2023-05-07T04:55:56;3.1;;;1.4;;
49582;SDS011;36329;48.816;44.624;2023-05-07T04:59:00;3;;;1.2;;
49582;SDS011;36329;48.816;44.624;2023-05-07T05:02:01;1.9;;;1.2;;
49582;SDS011;36329;48.816;44.624;2023-05-07T05:05:04;6.3;;;1.3;;
49582;SDS011;36329;48.816;44.624;2023-05-07T05:08:07;2.3;;;1.3;;
49582;SDS011;36329;48.816;44.624;2023-05-07T05:11:09;2.7;;;1.4;;
49582;SDS011;36329;48.816;44.624;2023-05-07T05:14:11;1.5;;;1.1;;
49582;SDS011;36329;48.816;44.624;2023-05-07T05:17:13;3.2;;;1.2;;
49582;SDS011;36329;48.816;44.624;2023-05-07T05:20:15;1.6;;;1.1;;
49582;SDS011;36329;48.816;44.624;2023-05-07T05:23:17;2.2;;;1.3;;
49582;SDS011;36329;48.816;44.624;2023-05-07T05:26:19;2;;;1.1;;
49582;SDS011;36329;48.816;44.624;2023-05-07T05:29:21;4.3;;;1.5;;
49582;SDS011;36329;48.816;44.624;2023-05-07T05:32:23;1.8;;;1.2;;
49582;SDS011;36329;48.816;44.624;2023-05-07T05:35:26;4.3;;;1.3;;
49582;SDS011;36329;48.816;44.624;2023-05-07T05:38:28;2.1;;;1.3;;
49582;SDS011;36329;48.816;44.624;2023-05-07T05:41:30;1.3;;;0.9;;
49582;SDS011;36329;48.816;44.624;2023-05-07T05:44:32;1.9;;;1.1;;
49582;SDS011;36329;48.816;44.624;2023-05-07T05:47:34;2.6;;;1.3;;
49582;SDS011;36329;48.816;44.624;2023-05-07T05:50:36;4.5;;;1.5;;
49582;SDS011;36329;48.816;44.624;2023-05-07T05:53:38;4.7;;;1.2;;
49582;SDS011;36329;48.816;44.624;2023-05-07T05:56:40;1.6;;;1.1;;
49582;SDS011;36329;48.816;44.624;2023-05-07T05:59:44;3.6;;;1.1;;
49582;SDS011;36329;48.816;44.624;2023-05-07T06:02:46;2;;;1.1;;
49582;SDS011;36329;48.816;44.624;2023-05-07T06:05:48;4.6;;;1.3;;
49582;SDS011;36329;48.816;44.624;2023-05-07T06:08:50;3.8;;;1.4;;
49582;SDS011;36329;48.816;44.624;2023-05-07T06:11:52;1.4;;;1.1;;
49582;SDS011;36329;48.816;44.624;2023-05-07T06:14:54;3.5;;;1.6;;
49582;SDS011;36329;48.816;44.624;2023-05-07T06:17:56;2.5;;;1.2;;
49582;SDS011;36329;48.816;44.624;2023-05-07T06:20:58;3.7;;;1.2;;
49582;SDS011;36329;48.816;44.624;2023-05-07T06:24:00;2.6;;;1.7;;
49582;SDS011;36329;48.816;44.624;2023-05-07T06:27:02;2.9;;;1.6;;
49582;SDS011;36329;48.816;44.624;2023-05-07T06:30:05;4.2;;;1.4;;
49582;SDS011;36329;48.816;44.624;2023-05-07T06:33:07;2.7;;;1.3;;
49582;SDS011;36329;48.816;44.624;2023-05-07T06:36:09;3.5;;;1.2;;
49582;SDS011;36329;48.816;44.624;2023-05-07T06:39:11;3.2;;;1.5;;
49582;SDS011;36329;48.816;44.624;2023-05-07T06:42:14;2.3;;;1.4;;
49582;SDS011;36329;48.816;44.624;2023-05-07T06:45:15;3.9;;;1.4;;
49582;SDS011;36329;48.816;44.624;2023-05-07T06:48:17;4.5;;;1.5;;
49582;SDS011;36329;48.816;44.624;2023-05-07T06:51:20;2.8;;;1.5;;
49582;SDS011;36329;48.816;44.624;2023-05-07T06:54:22;2.3;;;1.5;;
49582;SDS011;36329;48.816;44.624;2023-05-07T06:57:26;3.4;;;1.5;;
49582;SDS011;36329;48.816;44.624;2023-05-07T07:00:32;3.3;;;1.7;;
49582;SDS011;36329;48.816;44.624;2023-05-07T07:03:35;2.8;;;1.4;;
49582;SDS011;36329;48.816;44.624;2023-05-07T07:06:52;2.6;;;1.5;;
49582;SDS011;36329;48.816;44.624;2023-05-07T07:10:07;2.7;;;1.7;;
49582;SDS011;36329;48.816;44.624;2023-05-07T07:13:10;4.1;;;1.6;;
49582;SDS011;36329;48.816;44.624;2023-05-07T07:16:21;5.2;;;1.7;;
49582;SDS011;36329;48.816;44.624;2023-05-07T07:19:25;6.5;;;2.2;;
49582;SDS011;36329;48.816;44.624;2023-05-07T07:22:45;5.8;;;2.8;;
49582;SDS011;36329;48.816;44.624;2023-05-07T07:25:48;4.5;;;2.6;;
49582;SDS011;36329;48.816;44.624;2023-05-07T07:29:03;3.7;;;2.1;;
49582;SDS011;36329;48.816;44.624;2023-05-07T07:32:08;7;;;2;;
49582;SDS011;36329;48.816;44.624;2023-05-07T07:35:11;5.3;;;1.9;;
49582;SDS011;36329;48.816;44.624;2023-05-07T07:38:14;9.7;;;3.8;;
49582;SDS011;36329;48.816;44.624;2023-05-07T07:41:22;6.2;;;3.2;;
49582;SDS011;36329;48.816;44.624;2023-05-07T07:44:30;7.1;;;3.1;;
49582;SDS011;36329;48.816;44.624;2023-05-07T07:47:34;2.9;;;1.9;;
49582;SDS011;36329;48.816;44.624;2023-05-07T07:50:38;6.3;;;2;;
49582;SDS011;36329;48.816;44.624;2023-05-07T07:53:45;6.2;;;2.1;;
49582;SDS011;36329;48.816;44.624;2023-05-07T07:56:49;4.5;;;1.7;;
49582;SDS011;36329;48.816;44.624;2023-05-07T08:00:08;2.4;;;1.6;;
49582;SDS011;36329;48.816;44.624;2023-05-07T08:03:19;3;;;1.5;;
49582;SDS011;36329;48.816;44.624;2023-05-07T08:06:27;5.4;;;1.7;;
49582;SDS011;36329;48.816;44.624;2023-05-07T08:09:29;5.4;;;1.7;;
49582;SDS011;36329;48.816;44.624;2023-05-07T08:12:48;4.7;;;1.5;;
49582;SDS011;36329;48.816;44.624;2023-05-07T08:15:57;3.6;;;1.6;;
49582;SDS011;36329;48.816;44.624;2023-05-07T08:19:22;2.4;;;1.6;;
49582;SDS011;36329;48.816;44.624;2023-05-07T08:22:43;3.9;;;1.6;;
49582;SDS011;36329;48.816;44.624;2023-05-07T08:29:32;1.4;;;1.2;;
49582;SDS011;36329;48.816;44.624;2023-05-07T08:32:57;4.5;;;1.4;;
49582;SDS011;36329;48.816;44.624;2023-05-07T08:36:02;3.4;;;1.6;;
49582;SDS011;36329;48.816;44.624;2023-05-07T08:39:16;4.6;;;1.6;;
49582;SDS011;36329;48.816;44.624;2023-05-07T08:42:18;2.1;;;1.5;;
49582;SDS011;36329;48.816;44.624;2023-05-07T08:45:21;6.2;;;1.7;;
49582;SDS011;36329;48.816;44.624;2023-05-07T08:48:25;2.4;;;1.4;;
49582;SDS011;36329;48.816;44.624;2023-05-07T08:51:34;2.9;;;1.4;;
49582;SDS011;36329;48.816;44.624;2023-05-07T08:54:38;2.2;;;1.6;;
49582;SDS011;36329;48.816;44.624;2023-05-07T08:57:41;3.7;;;1.4;;
49582;SDS011;36329;48.816;44.624;2023-05-07T09:00:49;4.4;;;1.9;;
49582;SDS011;36329;48.816;44.624;2023-05-07T09:04:00;3.3;;;1.6;;
49582;SDS011;36329;48.816;44.624;2023-05-07T09:07:08;6.7;;;1.7;;
49582;SDS011;36329;48.816;44.624;2023-05-07T09:10:13;5;;;1.6;;
49582;SDS011;36329;48.816;44.624;2023-05-07T09:13:16;5.1;;;1.7;;
49582;SDS011;36329;48.816;44.624;2023-05-07T09:16:20;2.5;;;1.8;;
49582;SDS011;36329;48.816;44.624;2023-05-07T09:19:25;3;;;2;;
49582;SDS011;36329;48.816;44.624;2023-05-07T09:22:41;6.5;;;2.3;;
49582;SDS011;36329;48.816;44.624;2023-05-07T09:25:49;4.3;;;1.9;;
49582;SDS011;36329;48.816;44.624;2023-05-07T09:29:04;3.4;;;2.1;;
49582;SDS011;36329;48.816;44.624;2023-05-07T09:32:08;4.6;;;1.7;;
49582;SDS011;36329;48.816;44.624;2023-05-07T09:35:15;2.8;;;1.8;;
49582;SDS011;36329;48.816;44.624;2023-05-07T09:38:19;5.7;;;2.1;;
49582;SDS011;36329;48.816;44.624;2023-05-07T09:41:30;5.3;;;2;;
49582;SDS011;36329;48.816;44.624;2023-05-07T09:44:33;4.4;;;2;;
49582;SDS011;36329;48.816;44.624;2023-05-07T09:47:57;3.4;;;2.2;;
49582;SDS011;36329;48.816;44.624;2023-05-07T09:51:18;3.4;;;2.3;;
49582;SDS011;36329;48.816;44.624;2023-05-07T09:54:35;4.1;;;2.1;;
49582;SDS011;36329;48.816;44.624;2023-05-07T09:57:55;6.2;;;2.3;;
49582;SDS011;36329;48.816;44.624;2023-05-07T10:01:01;7;;;2.3;;
49582;SDS011;36329;48.816;44.624;2023-05-07T10:04:30;8.3;;;2.4;;
49582;SDS011;36329;48.816;44.624;2023-05-07T10:07:38;5.8;;;2.3;;
49582;SDS011;36329;48.816;44.624;2023-05-07T10:10:41;5.9;;;2.2;;
49582;SDS011;36329;48.816;44.624;2023-05-07T10:13:44;3.8;;;2;;
49582;SDS011;36329;48.816;44.624;2023-05-07T10:16:53;4.6;;;2.1;;
49582;SDS011;36329;48.816;44.624;2023-05-07T10:20:02;6.6;;;2.2;;
49582;SDS011;36329;48.816;44.624;2023-05-07T10:23:09;3.7;;;1.8;;
49582;SDS011;36329;48.816;44.624;2023-05-07T10:26:23;3;;;1.9;;
49582;SDS011;36329;48.816;44.624;2023-05-07T10:29:37;3.2;;;1.9;;
49582;SDS011;36329;48.816;44.624;2023-05-07T10:32:55;6.3;;;2;;
49582;SDS011;36329;48.816;44.624;2023-05-07T10:36:01;4.7;;;2.1;;
49582;SDS011;36329;48.816;44.624;2023-05-07T10:39:05;5.5;;;2;;
49582;SDS011;36329;48.816;44.624;2023-05-07T10:42:15;4.4;;;1.9;;
49582;SDS011;36329;48.816;44.624;2023-05-07T10:45:23;6.5;;;2.1;;
49582;SDS011;36329;48.816;44.624;2023-05-07T10:48:28;5.3;;;2.1;;
49582;SDS011;36329;48.816;44.624;2023-05-07T10:51:33;5.2;;;2;;
49582;SDS011;36329;48.816;44.624;2023-05-07T10:54:39;3.2;;;2;;
49582;SDS011;36329;48.816;44.624;2023-05-07T10:57:46;4.8;;;2;;
49582;SDS011;36329;48.816;44.624;2023-05-07T11:00:49;5.3;;;2;;
49582;SDS011;36329;48.816;44.624;2023-05-07T11:07:25;3.3;;;2;;
49582;SDS011;36329;48.816;44.624;2023-05-07T11:13:52;3.5;;;2;;
49582;SDS011;36329;48.816;44.624;2023-05-07T11:17:02;6.3;;;2.2;;
49582;SDS011;36329;48.816;44.624;2023-05-07T11:20:06;4.6;;;1.9;;
49582;SDS011;36329;48.816;44.624;2023-05-07T11:23:18;4.7;;;2.1;;
49582;SDS011;36329;48.816;44.624;2023-05-07T11:26:44;7.4;;;2.3;;
49582;SDS011;36329;48.816;44.624;2023-05-07T11:29:55;4;;;2.4;;
49582;SDS011;36329;48.816;44.624;2023-05-07T11:36:36;3.7;;;2;;
49582;SDS011;36329;48.816;44.624;2023-05-07T11:39:52;9.5;;;2.7;;
49582;SDS011;36329;48.816;44.624;2023-05-07T11:43:22;6.8;;;2.8;;
49582;SDS011;36329;48.816;44.624;2023-05-07T11:46:31;4.1;;;2.8;;
49582;SDS011;36329;48.816;44.624;2023-05-07T11:49:41;4.1;;;2.2;;
49582;SDS011;36329;48.816;44.624;2023-05-07T11:53:07;6.2;;;2.2;;
49582;SDS011;36329;48.816;44.624;2023-05-07T11:56:12;5.3;;;2.2;;
49582;SDS011;36329;48.816;44.624;2023-05-07T11:59:22;5.6;;;2;;
49582;SDS011;36329;48.816;44.624;2023-05-07T12:02:31;5.1;;;1.9;;
49582;SDS011;36329;48.816;44.624;2023-05-07T12:05:35;6.9;;;2.3;;
49582;SDS011;36329;48.816;44.624;2023-05-07T12:08:50;2.9;;;1.8;;
49582;SDS011;36329;48.816;44.624;2023-05-07T12:11:52;3.9;;;2;;
49582;SDS011;36329;48.816;44.624;2023-05-07T12:14:56;4;;;2.1;;
49582;SDS011;36329;48.816;44.624;2023-05-07T12:17:58;4.3;;;2;;
49582;SDS011;36329;48.816;44.624;2023-05-07T12:21:07;4.5;;;1.9;;
49582;SDS011;36329;48.816;44.624;2023-05-07T12:24:16;6.3;;;2.2;;
49582;SDS011;36329;48.816;44.624;2023-05-07T12:27:19;6.3;;;2.1;;
49582;SDS011;36329;48.816;44.624;2023-05-07T12:30:23;5.8;;;2.4;;
49582;SDS011;36329;48.816;44.624;2023-05-07T12:33:41;3.6;;;2.2;;
49582;SDS011;36329;48.816;44.624;2023-05-07T12:36:51;5.2;;;2.2;;
49582;SDS011;36329;48.816;44.624;2023-05-07T12:40:04;6.1;;;2.4;;
49582;SDS011;36329;48.816;44.624;2023-05-07T12:43:15;5.2;;;2.6;;
49582;SDS011;36329;48.816;44.624;2023-05-07T12:46:31;5.8;;;2.6;;
49582;SDS011;36329;48.816;44.624;2023-05-07T12:49:35;4.7;;;2.5;;
49582;SDS011;36329;48.816;44.624;2023-05-07T12:52:40;6.4;;;3.2;;
49582;SDS011;36329;48.816;44.624;2023-05-07T12:55:44;8.7;;;4.5;;
49582;SDS011;36329;48.816;44.624;2023-05-07T12:58:56;6.8;;;4.4;;
49582;SDS011;36329;48.816;44.624;2023-05-07T13:02:07;8.1;;;4.8;;
49582;SDS011;36329;48.816;44.624;2023-05-07T13:05:15;9.3;;;4.5;;
49582;SDS011;36329;48.816;44.624;2023-05-07T13:08:27;7.5;;;3.3;;
49582;SDS011;36329;48.816;44.624;2023-05-07T13:11:37;5.8;;;2.7;;
49582;SDS011;36329;48.816;44.624;2023-05-07T13:14:44;3.9;;;2.3;;
49582;SDS011;36329;48.816;44.624;2023-05-07T13:17:53;4;;;2.2;;
49582;SDS011;36329;48.816;44.624;2023-05-07T13:21:06;2.7;;;2;;
49582;SDS011;36329;48.816;44.624;2023-05-07T13:24:15;9.3;;;2.2;;
49582;SDS011;36329;48.816;44.624;2023-05-07T13:27:17;4.3;;;1.9;;
49582;SDS011;36329;48.816;44.624;2023-05-07T13:30:20;3.1;;;1.6;;
49582;SDS011;36329;48.816;44.624;2023-05-07T13:33:23;4.1;;;2;;
49582;SDS011;36329;48.816;44.624;2023-05-07T13:36:26;2.3;;;1.9;;
49582;SDS011;36329;48.816;44.624;2023-05-07T13:39:28;3.6;;;2;;
49582;SDS011;36329;48.816;44.624;2023-05-07T13:42:47;3.6;;;1.6;;
49582;SDS011;36329;48.816;44.624;2023-05-07T13:45:57;2.4;;;1.5;;
49582;SDS011;36329;48.816;44.624;2023-05-07T13:49:11;3.3;;;1.6;;
49582;SDS011;36329;48.816;44.624;2023-05-07T13:52:24;3.8;;;1.8;;
49582;SDS011;36329;48.816;44.624;2023-05-07T13:55:28;4.9;;;2;;
49582;SDS011;36329;48.816;44.624;2023-05-07T13:58:36;2.8;;;1.8;;
49582;SDS011;36329;48.816;44.624;2023-05-07T14:01:45;2.9;;;1.8;;
49582;SDS011;36329;48.816;44.624;2023-05-07T14:04:49;3.9;;;2;;
49582;SDS011;36329;48.816;44.624;2023-05-07T14:07:51;3.2;;;2.2;;
49582;SDS011;36329;48.816;44.624;2023-05-07T14:11:01;2.9;;;2.2;;
49582;SDS011;36329;48.816;44.624;2023-05-07T14:14:16;4.4;;;2.2;;
49582;SDS011;36329;48.816;44.624;2023-05-07T14:17:21;3.8;;;2.1;;
49582;SDS011;36329;48.816;44.624;2023-05-07T14:20:30;6;;;2.4;;
49582;SDS011;36329;48.816;44.624;2023-05-07T14:23:34;4.6;;;2.1;;
49582;SDS011;36329;48.816;44.624;2023-05-07T14:26:42;3.3;;;2.1;;
49582;SDS011;36329;48.816;44.624;2023-05-07T14:29:52;3.6;;;1.9;;
49582;SDS011;36329;48.816;44.624;2023-05-07T14:36:15;3.8;;;1.9;;
49582;SDS011;36329;48.816;44.624;2023-05-07T14:39:24;3.9;;;1.9;;
49582;SDS011;36329;48.816;44.624;2023-05-07T14:42:43;2.8;;;1.7;;
49582;SDS011;36329;48.816;44.624;2023-05-07T14:45:52;2.6;;;1.6;;
49582;SDS011;36329;48.816;44.624;2023-05-07T14:48:57;4.1;;;1.9;;
49582;SDS011;36329;48.816;44.624;2023-05-07T14:52:00;6.5;;;1.8;;
49582;SDS011;36329;48.816;44.624;2023-05-07T14:55:10;3;;;1.7;;
49582;SDS011;36329;48.816;44.624;2023-05-07T14:58:18;2.2;;;1.5;;
49582;SDS011;36329;48.816;44.624;2023-05-07T15:01:34;2.9;;;1.7;;
49582;SDS011;36329;48.816;44.624;2023-05-07T15:04:53;2.9;;;1.8;;
49582;SDS011;36329;48.816;44.624;2023-05-07T15:08:04;2.7;;;1.6;;
49582;SDS011;36329;48.816;44.624;2023-05-07T15:11:09;2.2;;;1.5;;
49582;SDS011;36329;48.816;44.624;2023-05-07T15:14:14;4.5;;;1.6;;
49582;SDS011;36329;48.816;44.624;2023-05-07T15:17:21;3.6;;;1.5;;
49582;SDS011;36329;48.816;44.624;2023-05-07T15:20:32;3.3;;;1.6;;
49582;SDS011;36329;48.816;44.624;2023-05-07T15:23:36;2.2;;;1.4;;
49582;SDS011;36329;48.816;44.624;2023-05-07T15:26:44;2.6;;;1.5;;
49582;SDS011;36329;48.816;44.624;2023-05-07T15:29:50;3.1;;;1.7;;
49582;SDS011;36329;48.816;44.624;2023-05-07T15:32:53;2.5;;;1.6;;
49582;SDS011;36329;48.816;44.624;2023-05-07T15:35:57;5.6;;;2;;
49582;SDS011;36329;48.816;44.624;2023-05-07T15:39:04;3.4;;;1.9;;
49582;SDS011;36329;48.816;44.624;2023-05-07T15:42:14;3;;;1.8;;
49582;SDS011;36329;48.816;44.624;2023-05-07T15:45:28;6.9;;;3.4;;
49582;SDS011;36329;48.816;44.624;2023-05-07T15:48:39;5.6;;;2.7;;
49582;SDS011;36329;48.816;44.624;2023-05-07T15:51:48;6.2;;;3.1;;
49582;SDS011;36329;48.816;44.624;2023-05-07T15:54:56;4.9;;;2.5;;
49582;SDS011;36329;48.816;44.624;2023-05-07T15:58:01;3.5;;;1.7;;
49582;SDS011;36329;48.816;44.624;2023-05-07T16:01:14;3.6;;;1.9;;
49582;SDS011;36329;48.816;44.624;2023-05-07T16:04:17;4.8;;;1.9;;
49582;SDS011;36329;48.816;44.624;2023-05-07T16:07:38;4.5;;;2.2;;
49582;SDS011;36329;48.816;44.624;2023-05-07T16:10:43;5.2;;;3.3;;
49582;SDS011;36329;48.816;44.624;2023-05-07T16:13:54;4.6;;;1.8;;
49582;SDS011;36329;48.816;44.624;2023-05-07T16:16:58;4.3;;;1.9;;
49582;SDS011;36329;48.816;44.624;2023-05-07T16:20:03;3.4;;;2.1;;
49582;SDS011;36329;48.816;44.624;2023-05-07T16:23:11;3.6;;;1.6;;
49582;SDS011;36329;48.816;44.624;2023-05-07T16:26:19;2.6;;;1.6;;
49582;SDS011;36329;48.816;44.624;2023-05-07T16:29:21;3.7;;;1.9;;
49582;SDS011;36329;48.816;44.624;2023-05-07T16:32:27;5.2;;;2;;
49582;SDS011;36329;48.816;44.624;2023-05-07T16:35:50;3.7;;;1.7;;
49582;SDS011;36329;48.816;44.624;2023-05-07T16:38:53;3.9;;;1.8;;
49582;SDS011;36329;48.816;44.624;2023-05-07T16:42:03;2.4;;;1.5;;
49582;SDS011;36329;48.816;44.624;2023-05-07T16:45:11;3;;;1.5;;
49582;SDS011;36329;48.816;44.624;2023-05-07T16:48:22;2.1;;;1.4;;
49582;SDS011;36329;48.816;44.624;2023-05-07T16:51:26;3;;;1.6;;
49582;SDS011;36329;48.816;44.624;2023-05-07T16:54:43;4.5;;;1.6;;
49582;SDS011;36329;48.816;44.624;2023-05-07T16:57:55;3.6;;;1.8;;
49582;SDS011;36329;48.816;44.624;2023-05-07T17:01:08;3.8;;;1.7;;
49582;SDS011;36329;48.816;44.624;2023-05-07T17:04:22;3.4;;;1.8;;
49582;SDS011;36329;48.816;44.624;2023-05-07T17:07:29;2.6;;;1.5;;
49582;SDS011;36329;48.816;44.624;2023-05-07T17:10:36;3;;;1.8;;
49582;SDS011;36329;48.816;44.624;2023-05-07T17:13:40;4.2;;;1.8;;
49582;SDS011;36329;48.816;44.624;2023-05-07T17:16:53;2.6;;;1.7;;
49582;SDS011;36329;48.816;44.624;2023-05-07T17:20:01;2.2;;;1.7;;
49582;SDS011;36329;48.816;44.624;2023-05-07T17:23:04;5.3;;;1.7;;
49582;SDS011;36329;48.816;44.624;2023-05-07T17:26:11;2.8;;;1.7;;
49582;SDS011;36329;48.816;44.624;2023-05-07T17:29:26;4.8;;;2;;
49582;SDS011;36329;48.816;44.624;2023-05-07T17:32:37;2.4;;;1.5;;
49582;SDS011;36329;48.816;44.624;2023-05-07T17:35:44;3;;;1.6;;
49582;SDS011;36329;48.816;44.624;2023-05-07T17:39:02;2.8;;;1.8;;
49582;SDS011;36329;48.816;44.624;2023-05-07T17:42:07;5.2;;;2;;
49582;SDS011;36329;48.816;44.624;2023-05-07T17:45:21;3.8;;;1.9;;
49582;SDS011;36329;48.816;44.624;2023-05-07T17:48:24;3.9;;;2.1;;
49582;SDS011;36329;48.816;44.624;2023-05-07T17:51:29;4.5;;;2.3;;
49582;SDS011;36329;48.816;44.624;2023-05-07T17:54:37;3.5;;;1.7;;
49582;SDS011;36329;48.816;44.624;2023-05-07T17:57:41;3;;;1.9;;
49582;SDS011;36329;48.816;44.624;2023-05-07T18:00:48;4.6;;;1.8;;
49582;SDS011;36329;48.816;44.624;2023-05-07T18:03:52;2.2;;;1.7;;
49582;SDS011;36329;48.816;44.624;2023-05-07T18:07:00;4.1;;;1.8;;
49582;SDS011;36329;48.816;44.624;2023-05-07T18:10:10;3.6;;;1.8;;
49582;SDS011;36329;48.816;44.624;2023-05-07T18:13:21;2.6;;;1.8;;
49582;SDS011;36329;48.816;44.624;2023-05-07T18:16:28;4.6;;;1.9;;
49582;SDS011;36329;48.816;44.624;2023-05-07T18:19:36;3;;;1.7;;
49582;SDS011;36329;48.816;44.624;2023-05-07T18:22:39;4.1;;;1.9;;
49582;SDS011;36329;48.816;44.624;2023-05-07T18:25:43;4.4;;;1.9;;
49582;SDS011;36329;48.816;44.624;2023-05-07T18:32:00;5.7;;;3.3;;
49582;SDS011;36329;48.816;44.624;2023-05-07T18:35:05;4.5;;;2.5;;
49582;SDS011;36329;48.816;44.624;2023-05-07T18:38:11;6.1;;;1.8;;
49582;SDS011;36329;48.816;44.624;2023-05-07T18:41:19;3.9;;;1.7;;
49582;SDS011;36329;48.816;44.624;2023-05-07T18:44:34;3.8;;;1.7;;
49582;SDS011;36329;48.816;44.624;2023-05-07T18:47:42;3.6;;;1.6;;
49582;SDS011;36329;48.816;44.624;2023-05-07T18:50:49;4.3;;;1.6;;
49582;SDS011;36329;48.816;44.624;2023-05-07T18:53:53;3.3;;;1.7;;
49582;SDS011;36329;48.816;44.624;2023-05-07T19:00:27;3.4;;;2.2;;
49582;SDS011;36329;48.816;44.624;2023-05-07T19:03:31;3.4;;;1.6;;
49582;SDS011;36329;48.816;44.624;2023-05-07T19:06:49;2;;;1.6;;
49582;SDS011;36329;48.816;44.624;2023-05-07T19:10:02;2.2;;;1.6;;
49582;SDS011;36329;48.816;44.624;2023-05-07T19:13:07;2.5;;;1.5;;
49582;SDS011;36329;48.816;44.624;2023-05-07T19:16:11;2.7;;;1.6;;
49582;SDS011;36329;48.816;44.624;2023-05-07T19:19:33;3.4;;;1.6;;
49582;SDS011;36329;48.816;44.624;2023-05-07T19:22:40;2.2;;;1.5;;
49582;SDS011;36329;48.816;44.624;2023-05-07T19:25:50;2.5;;;1.5;;
49582;SDS011;36329;48.816;44.624;2023-05-07T19:28:52;2.7;;;1.5;;
49582;SDS011;36329;48.816;44.624;2023-05-07T19:32:01;3.1;;;1.7;;